createdAt,value
2023-05-18T00:01:04.701Z,12.55
2023-05-18T00:03:34.002Z,13.77
2023-05-18T00:06:04.519Z,11.57
2023-05-18T00:08:36.655Z,10.82
2023-05-18T00:11:05.817Z,10.13
2023-05-18T00:13:33.619Z,11.75
2023-05-18T00:16:06.295Z,10.77
2023-05-18T00:18:37.070Z,10.95
2023-05-18T00:21:06.851Z,11.90
2023-05-18T00:23:41.309Z,10.23
2023-05-18T00:26:17.713Z,8.15
2023-05-18T00:31:22.820Z,12.50
2023-05-18T00:33:51.672Z,12.50
2023-05-18T00:36:20.860Z,9.02
2023-05-18T00:38:50.049Z,7.70
2023-05-18T00:41:17.418Z,8.73
2023-05-18T00:43:45.580Z,12.02
2023-05-18T00:46:15.309Z,15.13
2023-05-18T00:48:43.699Z,9.32
2023-05-18T00:51:12.634Z,8.70
2023-05-18T00:53:41.101Z,11.25
2023-05-18T00:56:14.886Z,9.13
2023-05-18T00:58:47.492Z,16.00
2023-05-18T01:01:17.921Z,12.77
2023-05-18T01:03:47.679Z,12.10
2023-05-18T01:06:19.463Z,13.07
2023-05-18T01:08:47.312Z,8.88
2023-05-18T01:11:51.368Z,12.43
2023-05-18T01:14:50.232Z,11.70
2023-05-18T01:17:35.161Z,13.50
2023-05-18T01:20:40.198Z,13.48
2023-05-18T01:23:10.322Z,9.50
2023-05-18T01:25:49.601Z,14.23
2023-05-18T01:28:19.946Z,11.52
2023-05-18T01:30:49.421Z,9.25
2023-05-18T01:33:17.032Z,9.85
2023-05-18T01:35:48.708Z,13.25
2023-05-18T01:38:23.196Z,9.02
2023-05-18T01:41:18.232Z,12.25
2023-05-18T01:44:15.605Z,10.63
2023-05-18T01:46:53.136Z,11.55
2023-05-18T01:50:02.577Z,12.77
2023-05-18T01:52:57.193Z,13.18
2023-05-18T01:55:29.917Z,12.63
2023-05-18T01:58:01.098Z,12.48
2023-05-18T02:00:28.389Z,10.07
2023-05-18T02:02:57.124Z,13.95
2023-05-18T02:05:24.170Z,13.10
2023-05-18T02:07:51.690Z,14.07
2023-05-18T02:10:19.200Z,8.40
2023-05-18T02:12:52.804Z,10.50
2023-05-18T02:15:26.486Z,11.13
2023-05-18T02:17:58.608Z,15.23
2023-05-18T02:20:27.487Z,11.35
2023-05-18T02:22:57.899Z,13.05
2023-05-18T02:25:24.980Z,10.57
2023-05-18T02:27:52.869Z,11.57
2023-05-18T02:30:20.272Z,16.80
2023-05-18T02:32:47.386Z,7.82
2023-05-18T02:35:18.283Z,11.15
2023-05-18T02:37:45.564Z,15.02
2023-05-18T02:40:17.275Z,11.90
2023-05-18T02:42:53.876Z,19.35
2023-05-18T02:45:21.652Z,14.20
2023-05-18T02:47:50.050Z,11.05
2023-05-18T02:50:17.194Z,11.60
2023-05-18T02:52:49.344Z,9.30
2023-05-18T02:55:17.555Z,10.93
2023-05-18T02:57:58.083Z,11.93
2023-05-18T03:00:42.477Z,10.60
2023-05-18T03:03:11.451Z,9.85
2023-05-18T03:05:39.000Z,17.08
2023-05-18T03:08:07.351Z,10.95
2023-05-18T03:10:35.821Z,10.57
2023-05-18T03:13:05.659Z,9.93
2023-05-18T03:15:34.877Z,14.98
2023-05-18T03:18:02.116Z,13.60
2023-05-18T03:20:31.858Z,8.63
2023-05-18T03:22:59.089Z,11.73
2023-05-18T03:25:27.738Z,13.88
2023-05-18T03:27:55.595Z,11.75
2023-05-18T03:30:24.553Z,14.05
2023-05-18T03:32:53.494Z,14.35
2023-05-18T03:35:20.781Z,9.85
2023-05-18T03:37:48.835Z,12.00
2023-05-18T03:40:18.381Z,11.52
2023-05-18T03:42:48.938Z,13.50
2023-05-18T03:45:18.038Z,10.95
2023-05-18T03:47:48.855Z,12.90
2023-05-18T03:50:18.041Z,16.83
2023-05-18T03:52:47.527Z,12.50
2023-05-18T03:55:14.557Z,13.52
2023-05-18T03:57:42.781Z,10.27
2023-05-18T04:00:12.327Z,14.05
2023-05-18T04:02:45.911Z,12.93
2023-05-18T04:05:18.639Z,14.40
2023-05-18T04:07:50.272Z,13.77
2023-05-18T04:10:21.926Z,11.10
2023-05-18T04:12:51.440Z,12.27
2023-05-18T04:15:18.374Z,12.20
2023-05-18T04:17:47.651Z,11.18
2023-05-18T04:20:15.055Z,11.52
2023-05-18T04:22:48.776Z,10.32
2023-05-18T04:25:20.220Z,9.95
2023-05-18T04:27:51.889Z,10.23
2023-05-18T04:30:22.742Z,12.98
2023-05-18T04:32:54.862Z,13.13
2023-05-18T04:35:23.477Z,12.20
2023-05-18T04:37:51.146Z,9.63
2023-05-18T04:40:20.629Z,7.97
2023-05-18T04:42:49.331Z,10.20
2023-05-18T04:45:26.315Z,12.20
2023-05-18T04:47:55.341Z,11.07
2023-05-18T04:50:27.005Z,10.30
2023-05-18T04:52:58.103Z,13.18
2023-05-18T04:55:28.703Z,10.93
2023-05-18T05:00:30.353Z,8.75
2023-05-18T05:02:59.185Z,10.45
2023-05-18T05:05:28.199Z,20.25
2023-05-18T05:07:56.710Z,12.48
2023-05-18T05:10:24.931Z,14.18
2023-05-18T05:12:52.655Z,10.70
2023-05-18T05:15:21.079Z,11.75
2023-05-18T05:17:51.691Z,11.48
2023-05-18T05:20:20.841Z,10.10
2023-05-18T05:22:48.769Z,14.82
2023-05-18T05:25:22.832Z,13.40
2023-05-18T05:27:51.566Z,15.05
2023-05-18T05:30:24.534Z,13.63
2023-05-18T05:32:51.843Z,13.88
2023-05-18T05:35:19.908Z,19.70
2023-05-18T05:37:50.326Z,24.45
2023-05-18T05:40:20.877Z,18.67
2023-05-18T05:42:47.997Z,17.67
2023-05-18T05:45:14.964Z,16.42
2023-05-18T05:47:49.724Z,16.50
2023-05-18T05:50:20.038Z,12.27
2023-05-18T05:52:50.947Z,16.75
2023-05-18T05:55:18.966Z,14.55
2023-05-18T05:57:48.759Z,17.38
2023-05-18T06:00:16.434Z,15.48
2023-05-18T06:02:53.936Z,12.38
2023-05-18T06:05:34.986Z,11.18
2023-05-18T06:08:06.344Z,15.27
2023-05-18T06:10:48.295Z,12.45
2023-05-18T06:13:21.048Z,11.48
2023-05-18T06:15:56.421Z,15.05
2023-05-18T06:21:23.933Z,15.05
2023-05-18T06:26:55.321Z,13.35
2023-05-18T06:29:37.619Z,16.95
2023-05-18T06:32:14.228Z,11.27
2023-05-18T06:34:46.003Z,14.93
2023-05-18T06:37:13.154Z,13.85
2023-05-18T06:39:40.703Z,13.63
2023-05-18T06:42:08.414Z,15.98
2023-05-18T06:44:38.483Z,17.40
2023-05-18T06:47:10.440Z,15.23
2023-05-18T06:49:38.585Z,15.32
2023-05-18T06:52:10.146Z,12.48
2023-05-18T06:54:38.631Z,15.45
2023-05-18T06:57:06.312Z,14.63
2023-05-18T06:59:35.640Z,19.88
2023-05-18T07:02:04.201Z,11.90
2023-05-18T07:04:33.457Z,15.55
2023-05-18T07:07:00.546Z,14.40
2023-05-18T07:09:27.646Z,15.90
2023-05-18T07:11:54.540Z,17.35
2023-05-18T07:14:21.609Z,16.65
2023-05-18T07:16:57.430Z,17.88
2023-05-18T07:19:28.233Z,18.20
2023-05-18T07:21:57.440Z,15.20
2023-05-18T07:24:33.239Z,17.98
2023-05-18T07:27:00.993Z,14.98
2023-05-18T07:29:30.234Z,16.70
2023-05-18T07:31:57.372Z,17.58
2023-05-18T07:34:40.598Z,25.52
2023-05-18T07:40:43.652Z,17.27
2023-05-18T07:43:47.867Z,16.83
2023-05-18T07:46:43.775Z,17.90
2023-05-18T07:49:10.715Z,23.95
2023-05-18T07:51:37.679Z,18.50
2023-05-18T07:54:05.486Z,21.27
2023-05-18T07:56:32.327Z,18.63
2023-05-18T07:58:59.275Z,20.20
2023-05-18T08:01:28.321Z,16.80
2023-05-18T08:03:56.258Z,18.02
2023-05-18T08:06:36.326Z,20.63
2023-05-18T08:09:08.128Z,21.20
2023-05-18T08:11:47.987Z,14.95
2023-05-18T08:14:31.950Z,22.45
2023-05-18T08:17:08.686Z,20.85
2023-05-18T08:19:41.955Z,18.35
2023-05-18T08:22:11.951Z,19.33
2023-05-18T08:24:42.837Z,22.58
2023-05-18T08:27:11.435Z,20.30
2023-05-18T08:29:40.105Z,22.30
2023-05-18T08:32:11.067Z,22.67
2023-05-18T08:34:38.176Z,25.42
2023-05-18T08:37:05.344Z,22.90
2023-05-18T08:39:41.214Z,17.63
2023-05-18T08:42:17.331Z,28.75
2023-05-18T08:44:54.941Z,23.67
2023-05-18T08:47:28.162Z,19.15
2023-05-18T08:50:00.573Z,19.15
2023-05-18T08:52:33.350Z,17.67
2023-05-18T08:55:02.963Z,24.58
2023-05-18T08:57:32.736Z,20.63
2023-05-18T09:00:02.249Z,19.70
2023-05-18T09:02:35.696Z,19.00
2023-05-18T09:05:04.098Z,21.40
2023-05-18T09:07:33.132Z,19.95
2023-05-18T09:10:02.076Z,21.17
2023-05-18T09:12:33.606Z,20.33
2023-05-18T09:15:02.492Z,22.17
2023-05-18T09:17:34.420Z,20.65
2023-05-18T09:20:01.383Z,20.33
2023-05-18T09:22:31.056Z,18.48
2023-05-18T09:24:58.319Z,18.20
2023-05-18T09:27:26.141Z,17.08
2023-05-18T09:29:57.462Z,17.35
2023-05-18T09:32:25.305Z,14.63
2023-05-18T09:34:55.497Z,17.88
2023-05-18T09:37:23.215Z,15.93
2023-05-18T09:40:05.170Z,15.45
2023-05-18T09:42:41.758Z,20.95
2023-05-18T09:45:19.480Z,14.65
2023-05-18T09:47:48.527Z,16.42
2023-05-18T09:50:18.799Z,16.88
2023-05-18T09:52:47.392Z,19.45
2023-05-18T09:55:17.636Z,15.93
2023-05-18T09:57:50.239Z,15.70
2023-05-18T10:00:19.871Z,14.30
2023-05-18T10:02:51.571Z,19.13
2023-05-18T10:05:36.071Z,14.02
2023-05-18T10:08:03.524Z,12.00
2023-05-18T10:10:30.888Z,13.00
2023-05-18T10:13:02.409Z,14.98
2023-05-18T10:15:29.657Z,14.32
2023-05-18T10:18:00.106Z,12.57
2023-05-18T10:20:28.126Z,15.73
2023-05-18T10:23:02.910Z,14.93
2023-05-18T10:25:30.901Z,15.13
2023-05-18T10:28:02.266Z,10.35
2023-05-18T10:30:30.195Z,13.77
2023-05-18T10:32:58.539Z,11.73
2023-05-18T10:35:28.485Z,12.32
2023-05-18T10:38:00.071Z,11.20
2023-05-18T10:40:29.612Z,13.23
2023-05-18T10:43:00.964Z,10.55
2023-05-18T10:45:28.677Z,10.80
2023-05-18T10:47:57.409Z,10.40
2023-05-18T10:50:25.711Z,9.40
2023-05-18T10:52:53.729Z,16.63
2023-05-18T10:55:21.028Z,10.85
2023-05-18T10:57:57.333Z,11.25
2023-05-18T11:00:24.395Z,13.05
2023-05-18T11:02:53.090Z,10.98
2023-05-18T11:05:27.590Z,13.43
2023-05-18T11:08:05.816Z,12.73
2023-05-18T11:10:44.719Z,11.52
2023-05-18T11:13:13.849Z,13.18
2023-05-18T11:15:56.357Z,12.48
2023-05-18T11:18:44.718Z,13.35
2023-05-18T11:21:42.186Z,12.00
2023-05-18T11:24:25.171Z,11.43
2023-05-18T11:27:16.032Z,11.68
2023-05-18T11:30:07.541Z,13.25
2023-05-18T11:32:52.056Z,11.70
2023-05-18T11:35:24.501Z,11.27
2023-05-18T11:37:51.456Z,16.17
2023-05-18T11:40:47.556Z,15.82
2023-05-18T11:43:23.519Z,12.43
2023-05-18T11:45:55.096Z,13.35
2023-05-18T11:48:30.319Z,12.93
2023-05-18T11:50:58.005Z,11.05
2023-05-18T11:53:26.448Z,14.50
2023-05-18T11:55:59.744Z,12.40
2023-05-18T11:58:27.085Z,11.75
2023-05-18T12:00:57.755Z,14.77
2023-05-18T12:03:26.553Z,14.60
2023-05-18T12:05:54.412Z,12.85
2023-05-18T12:08:29.334Z,15.52
2023-05-18T12:10:58.371Z,15.05
2023-05-18T12:13:26.345Z,15.90
2023-05-18T12:15:55.823Z,14.10
2023-05-18T12:18:24.269Z,12.98
2023-05-18T12:20:51.846Z,14.65
2023-05-18T12:23:20.858Z,13.85
2023-05-18T12:25:51.911Z,15.68
2023-05-18T12:28:23.371Z,12.88
2023-05-18T12:30:57.243Z,15.18
2023-05-18T12:33:25.964Z,13.40
2023-05-18T12:35:57.786Z,12.30
2023-05-18T12:38:32.975Z,12.23
2023-05-18T12:41:07.025Z,12.25
2023-05-18T12:43:37.886Z,13.32
2023-05-18T12:46:07.400Z,15.07
2023-05-18T12:48:38.821Z,13.88
2023-05-18T12:51:17.347Z,14.88
2023-05-18T12:53:51.250Z,13.38
2023-05-18T12:56:18.359Z,14.40
2023-05-18T12:58:59.878Z,15.68
2023-05-18T13:01:27.134Z,10.82
2023-05-18T13:04:00.922Z,14.45
2023-05-18T13:06:27.925Z,17.63
2023-05-18T13:09:13.859Z,11.52
2023-05-18T13:12:49.601Z,13.82
2023-05-18T13:18:13.252Z,16.45
2023-05-18T13:20:59.081Z,12.77
2023-05-18T13:23:30.066Z,17.45
2023-05-18T13:26:08.125Z,15.38
2023-05-18T13:28:40.734Z,14.82
2023-05-18T13:31:12.902Z,13.70
2023-05-18T13:34:37.650Z,14.40
2023-05-18T13:37:05.494Z,11.98
2023-05-18T13:39:32.258Z,14.07
2023-05-18T13:42:04.168Z,14.35
2023-05-18T13:44:31.116Z,12.07
2023-05-18T13:47:06.464Z,11.93
2023-05-18T13:49:46.865Z,15.20
2023-05-18T13:52:29.129Z,14.00
2023-05-18T13:54:57.388Z,13.27
2023-05-18T13:57:28.675Z,13.20
2023-05-18T13:59:59.042Z,10.20
2023-05-18T14:02:33.421Z,10.23
2023-05-18T14:05:00.436Z,13.40
2023-05-18T14:07:32.928Z,13.93
2023-05-18T14:10:01.241Z,11.15
2023-05-18T14:12:29.012Z,13.45
2023-05-18T14:14:56.670Z,17.88
2023-05-18T14:17:23.450Z,11.50
2023-05-18T14:19:50.113Z,10.45
2023-05-18T14:22:19.925Z,11.85
2023-05-18T14:24:46.710Z,13.85
2023-05-18T14:27:14.747Z,9.18
2023-05-18T14:29:41.646Z,10.80
2023-05-18T14:32:08.915Z,10.82
2023-05-18T14:34:35.898Z,9.23
2023-05-18T14:37:02.775Z,9.57
2023-05-18T14:39:29.699Z,11.98
2023-05-18T14:41:59.034Z,10.70
2023-05-18T14:44:27.591Z,11.85
2023-05-18T14:46:54.666Z,11.90
2023-05-18T14:49:24.764Z,13.13
2023-05-18T14:51:52.004Z,10.20
2023-05-18T14:54:19.664Z,10.07
2023-05-18T14:56:46.574Z,12.02
2023-05-18T14:59:13.399Z,10.40
2023-05-18T15:01:40.182Z,10.65
2023-05-18T15:04:07.347Z,8.10
2023-05-18T15:06:34.493Z,12.80
2023-05-18T15:09:02.912Z,14.00
2023-05-18T15:11:32.924Z,13.18
2023-05-18T15:14:02.570Z,10.95
2023-05-18T15:16:29.692Z,15.75
2023-05-18T15:18:56.862Z,10.02
2023-05-18T15:21:24.163Z,14.88
2023-05-18T15:23:52.475Z,10.30
2023-05-18T15:26:20.806Z,12.23
2023-05-18T15:28:51.549Z,13.87
2023-05-18T15:31:18.473Z,9.38
2023-05-18T15:33:49.435Z,14.07
2023-05-18T15:36:19.108Z,10.85
2023-05-18T15:38:51.116Z,10.80
2023-05-18T15:41:21.391Z,15.35
2023-05-18T15:43:48.173Z,11.02
2023-05-18T15:46:15.121Z,12.63
2023-05-18T15:48:42.071Z,12.77
2023-05-18T15:51:10.844Z,13.20
2023-05-18T15:53:41.020Z,10.95
2023-05-18T15:56:09.962Z,10.93
2023-05-18T15:58:36.680Z,11.25
2023-05-18T16:01:03.608Z,16.52
2023-05-18T16:03:30.698Z,9.45
2023-05-18T16:05:58.108Z,8.63
2023-05-18T16:08:24.843Z,11.70
2023-05-18T16:10:51.655Z,9.75
2023-05-18T16:13:25.882Z,10.25
2023-05-18T16:15:52.877Z,12.70
2023-05-18T16:18:19.880Z,12.05
2023-05-18T16:20:46.615Z,10.05
2023-05-18T16:23:13.370Z,13.20
2023-05-18T16:25:40.237Z,10.60
2023-05-18T16:28:07.000Z,11.15
2023-05-18T16:30:34.016Z,8.15
2023-05-18T16:33:01.008Z,11.27
2023-05-18T16:35:29.198Z,10.30
2023-05-18T16:37:57.990Z,11.80
2023-05-18T16:40:24.733Z,9.80
2023-05-18T16:42:51.558Z,8.75
2023-05-18T16:45:18.622Z,11.35
2023-05-18T16:47:45.543Z,10.90
2023-05-18T16:50:14.722Z,9.50
2023-05-18T16:52:43.012Z,10.00
2023-05-18T16:55:10.513Z,8.88
2023-05-18T16:57:37.564Z,10.00
2023-05-18T17:00:07.808Z,11.50
2023-05-18T17:02:38.298Z,7.00
2023-05-18T17:05:06.751Z,9.85
2023-05-18T17:07:34.646Z,10.95
2023-05-18T17:10:01.759Z,6.53
2023-05-18T17:12:29.016Z,10.05
2023-05-18T17:14:56.017Z,7.70
2023-05-18T17:17:23.595Z,7.47
2023-05-18T17:19:52.957Z,11.55
2023-05-18T17:22:19.720Z,11.60
2023-05-18T17:24:46.541Z,10.88
2023-05-18T17:27:13.698Z,7.15
2023-05-18T17:29:40.415Z,9.02
2023-05-18T17:32:08.598Z,11.43
2023-05-18T17:34:35.510Z,9.80
2023-05-18T17:37:02.251Z,7.60
2023-05-18T17:39:29.029Z,10.93
2023-05-18T17:41:57.837Z,10.30
2023-05-18T17:44:25.779Z,9.75
2023-05-18T17:46:53.547Z,11.05
2023-05-18T17:49:20.897Z,12.82
2023-05-18T17:51:47.727Z,11.18
2023-05-18T17:54:14.771Z,10.52
2023-05-18T17:56:41.742Z,9.38
2023-05-18T17:59:08.677Z,10.63
2023-05-18T18:01:36.705Z,8.98
2023-05-18T18:04:04.127Z,7.03
2023-05-18T18:06:35.676Z,11.43
2023-05-18T18:09:04.865Z,9.32
2023-05-18T18:11:32.107Z,13.18
2023-05-18T18:14:00.000Z,8.13
2023-05-18T18:16:29.714Z,7.93
2023-05-18T18:19:02.168Z,8.80
2023-05-18T18:21:32.994Z,12.50
2023-05-18T18:24:01.388Z,11.30
2023-05-18T18:26:28.762Z,11.82
2023-05-18T18:28:55.969Z,8.50
2023-05-18T18:31:22.876Z,10.60
2023-05-18T18:33:50.901Z,10.75
2023-05-18T18:36:18.160Z,8.23
2023-05-18T18:38:45.291Z,11.05
2023-05-18T18:41:13.108Z,8.95
2023-05-18T18:43:40.060Z,11.15
2023-05-18T18:46:07.308Z,8.77
2023-05-18T18:48:34.582Z,13.25
2023-05-18T18:51:01.692Z,12.25
2023-05-18T18:53:28.710Z,9.50
2023-05-18T18:55:57.211Z,8.95
2023-05-18T18:58:24.426Z,10.90
2023-05-18T19:00:51.455Z,8.77
2023-05-18T19:03:18.371Z,11.73
2023-05-18T19:05:45.398Z,11.57
2023-05-18T19:08:18.916Z,7.78
2023-05-18T19:10:46.974Z,9.88
2023-05-18T19:13:13.848Z,9.55
2023-05-18T19:15:40.857Z,9.27
2023-05-18T19:18:08.069Z,14.70
2023-05-18T19:20:35.812Z,11.00
2023-05-18T19:23:04.934Z,14.88
2023-05-18T19:25:32.017Z,9.13
2023-05-18T19:27:59.132Z,10.27
2023-05-18T19:30:26.055Z,8.60
2023-05-18T19:32:53.874Z,13.02
2023-05-18T19:35:22.186Z,16.00
2023-05-18T19:37:49.599Z,9.55
2023-05-18T19:40:17.999Z,12.00
2023-05-18T19:42:45.292Z,11.02
2023-05-18T19:45:12.154Z,10.35
2023-05-18T19:47:39.322Z,9.98
2023-05-18T19:50:07.235Z,12.27
2023-05-18T19:52:34.615Z,8.82
2023-05-18T19:55:02.366Z,14.63
2023-05-18T19:57:33.192Z,14.07
2023-05-18T20:00:01.532Z,13.50
2023-05-18T20:02:35.224Z,12.15
2023-05-18T20:05:04.992Z,13.73
2023-05-18T20:07:34.012Z,11.40
2023-05-18T20:10:01.156Z,13.27
2023-05-18T20:12:33.197Z,11.63
2023-05-18T20:15:00.215Z,12.70
2023-05-18T20:17:27.420Z,12.82
2023-05-18T20:19:54.242Z,12.25
2023-05-18T20:22:21.225Z,11.25
2023-05-18T20:24:49.020Z,15.75
2023-05-18T20:27:16.634Z,11.27
2023-05-18T20:29:43.660Z,13.02
2023-05-18T20:32:10.873Z,11.13
2023-05-18T20:34:37.766Z,10.65
2023-05-18T20:37:05.391Z,11.20
2023-05-18T20:39:32.920Z,14.65
2023-05-18T20:41:59.820Z,18.40
2023-05-18T20:44:28.076Z,13.27
2023-05-18T20:46:54.945Z,9.90
2023-05-18T20:49:22.396Z,13.68
2023-05-18T20:51:49.980Z,9.25
2023-05-18T20:54:17.986Z,9.43
2023-05-18T20:56:45.057Z,10.35
2023-05-18T20:59:12.712Z,13.25
2023-05-18T21:01:40.174Z,12.23
2023-05-18T21:04:08.058Z,11.13
2023-05-18T21:06:40.417Z,11.80
2023-05-18T21:09:10.728Z,12.43
2023-05-18T21:11:37.560Z,14.80
2023-05-18T21:14:04.699Z,11.68
2023-05-18T21:16:31.738Z,14.05
2023-05-18T21:18:58.681Z,11.20
2023-05-18T21:21:25.948Z,15.57
2023-05-18T21:23:52.832Z,11.27
2023-05-18T21:26:19.858Z,14.10
2023-05-18T21:28:46.688Z,14.15
2023-05-18T21:31:13.634Z,14.07
2023-05-18T21:33:41.954Z,12.18
2023-05-18T21:36:10.061Z,14.35
2023-05-18T21:38:36.888Z,11.65
2023-05-18T21:41:03.825Z,11.98
2023-05-18T21:43:30.713Z,11.13
2023-05-18T21:45:57.753Z,15.32
2023-05-18T21:48:24.639Z,11.75
2023-05-18T21:50:51.596Z,13.45
2023-05-18T21:53:18.832Z,19.48
2023-05-18T21:55:45.705Z,16.50
2023-05-18T21:58:12.618Z,10.52
2023-05-18T22:00:39.712Z,12.00
2023-05-18T22:03:06.653Z,12.93
2023-05-18T22:05:33.587Z,12.07
2023-05-18T22:08:00.575Z,11.85
2023-05-18T22:10:27.405Z,15.85
2023-05-18T22:12:54.409Z,14.07
2023-05-18T22:15:22.512Z,12.98
2023-05-18T22:17:49.923Z,13.30
2023-05-18T22:20:17.726Z,10.45
2023-05-18T22:22:44.661Z,11.40
2023-05-18T22:25:25.905Z,13.57
2023-05-18T22:27:53.606Z,15.57
2023-05-18T22:30:23.786Z,10.90
2023-05-18T22:32:51.989Z,10.73
2023-05-18T22:35:22.178Z,15.70
2023-05-18T22:37:49.189Z,11.52
2023-05-18T22:40:16.072Z,9.30
2023-05-18T22:42:42.958Z,14.65
2023-05-18T22:45:11.648Z,9.48
2023-05-18T22:47:39.563Z,13.20
2023-05-18T22:50:07.684Z,10.75
2023-05-18T22:52:35.124Z,12.85
2023-05-18T22:55:02.449Z,13.43
2023-05-18T22:57:31.715Z,9.65
2023-05-18T22:59:58.560Z,11.02
2023-05-18T23:02:25.897Z,10.85
2023-05-18T23:04:52.867Z,11.50
2023-05-18T23:07:20.053Z,12.57
2023-05-18T23:09:46.832Z,10.60
2023-05-18T23:12:13.600Z,10.13
2023-05-18T23:14:42.728Z,11.77
2023-05-18T23:17:09.513Z,12.70
2023-05-18T23:19:36.389Z,9.75
2023-05-18T23:22:03.929Z,13.68
2023-05-18T23:24:30.961Z,11.48
2023-05-18T23:26:58.922Z,12.18
2023-05-18T23:29:25.739Z,11.48
2023-05-18T23:31:52.662Z,11.18
2023-05-18T23:34:19.781Z,9.68
2023-05-18T23:36:48.292Z,13.88
2023-05-18T23:39:15.310Z,10.30
2023-05-18T23:41:43.580Z,10.48
2023-05-18T23:44:10.724Z,10.32
2023-05-18T23:46:38.060Z,12.15
2023-05-18T23:49:05.253Z,10.10
2023-05-18T23:51:36.254Z,12.88
2023-05-18T23:54:07.289Z,18.35
2023-05-18T23:56:34.627Z,9.45
2023-05-18T23:59:01.813Z,10.68
